createdAt,value
2022-10-17T00:01:07.912Z,42.50
2022-10-17T00:03:37.520Z,50.72
2022-10-17T00:06:07.493Z,64.40
2022-10-17T00:08:34.933Z,75.18
2022-10-17T00:11:06.980Z,63.83
2022-10-17T00:13:34.656Z,40.97
2022-10-17T00:16:01.931Z,51.92
2022-10-17T00:18:32.235Z,58.45
2022-10-17T00:21:03.851Z,39.67
2022-10-17T00:26:02.064Z,52.38
2022-10-17T00:28:29.682Z,45.28
2022-10-17T00:31:02.172Z,32.35
2022-10-17T00:33:39.396Z,45.90
2022-10-17T00:36:20.017Z,38.15
2022-10-17T00:39:09.973Z,43.28
2022-10-17T00:41:37.380Z,52.10
2022-10-17T00:44:30.325Z,46.97
2022-10-17T00:47:08.344Z,60.63
2022-10-17T00:49:37.235Z,34.42
2022-10-17T00:52:31.715Z,43.22
2022-10-17T00:55:06.841Z,48.40
2022-10-17T00:57:44.259Z,56.40
2022-10-17T01:00:12.883Z,60.47
2022-10-17T01:02:42.330Z,46.33
2022-10-17T01:05:20.124Z,40.45
2022-10-17T01:08:06.570Z,63.00
2022-10-17T01:11:42.473Z,48.35
2022-10-17T01:23:23.091Z,47.10
2022-10-17T02:13:58.545Z,34.03
2022-10-17T03:55:57.817Z,46.65
2022-10-17T04:02:12.365Z,35.03
2022-10-17T04:04:41.691Z,33.80
2022-10-17T04:07:08.944Z,31.73
2022-10-17T04:09:39.214Z,30.67
2022-10-17T04:12:06.491Z,31.88
2022-10-17T04:14:33.847Z,30.80
2022-10-17T04:17:01.123Z,33.47
2022-10-17T04:19:28.411Z,32.15
2022-10-17T04:21:55.715Z,33.80
2022-10-17T04:24:23.048Z,32.28
2022-10-17T04:26:51.254Z,33.47
2022-10-17T04:29:18.647Z,32.40
2022-10-17T04:31:46.041Z,33.22
2022-10-17T04:34:14.502Z,33.67
2022-10-17T04:36:41.880Z,32.42
2022-10-17T04:39:09.158Z,32.08
2022-10-17T04:41:38.648Z,32.47
2022-10-17T04:44:06.233Z,32.78
2022-10-17T04:46:35.299Z,33.22
2022-10-17T04:49:03.084Z,35.05
2022-10-17T04:51:32.695Z,35.05
2022-10-17T04:54:00.036Z,35.40
2022-10-17T04:56:27.387Z,38.55
2022-10-17T04:58:54.641Z,40.47
2022-10-17T05:01:23.473Z,41.53
2022-10-17T05:03:51.428Z,36.78
2022-10-17T05:06:24.556Z,38.47
2022-10-17T05:08:51.871Z,37.25
2022-10-17T05:11:29.733Z,37.08
2022-10-17T05:14:00.227Z,41.05
2022-10-17T05:16:30.884Z,40.08
2022-10-17T05:18:59.213Z,41.57
2022-10-17T05:21:30.486Z,37.28
2022-10-17T05:23:57.843Z,35.75
2022-10-17T05:26:25.796Z,40.38
2022-10-17T05:28:54.717Z,38.38
2022-10-17T05:31:22.102Z,37.97
2022-10-17T05:33:51.673Z,37.92
2022-10-17T05:36:21.208Z,38.78
2022-10-17T05:38:59.178Z,36.20
2022-10-17T05:41:26.460Z,36.40
2022-10-17T05:43:53.751Z,38.05
2022-10-17T05:46:21.134Z,40.00
2022-10-17T05:48:48.438Z,37.58
2022-10-17T05:51:16.032Z,36.53
2022-10-17T05:53:43.352Z,36.65
2022-10-17T05:56:12.773Z,34.75
2022-10-17T05:58:53.160Z,31.23
2022-10-17T06:01:22.480Z,28.65
2022-10-17T06:03:51.919Z,27.60
2022-10-17T06:06:19.718Z,26.55
2022-10-17T06:08:49.371Z,30.75
2022-10-17T06:11:16.858Z,30.95
2022-10-17T06:13:46.368Z,30.75
2022-10-17T06:16:13.698Z,29.73
2022-10-17T06:18:43.381Z,28.67
2022-10-17T06:21:12.305Z,29.27
2022-10-17T06:23:39.691Z,26.88
2022-10-17T06:26:10.298Z,30.45
2022-10-17T06:28:37.683Z,31.77
2022-10-17T06:31:15.288Z,25.65
2022-10-17T06:33:42.830Z,22.92
2022-10-17T06:36:12.609Z,24.30
2022-10-17T06:38:40.289Z,24.77
2022-10-17T06:41:19.044Z,24.13
2022-10-17T06:43:47.611Z,27.25
2022-10-17T06:46:18.953Z,24.05
2022-10-17T06:48:48.697Z,24.30
2022-10-17T06:51:15.950Z,24.63
2022-10-17T06:53:43.207Z,27.35
2022-10-17T06:56:10.776Z,28.40
2022-10-17T06:58:41.021Z,30.88
2022-10-17T07:01:11.535Z,30.35
2022-10-17T07:03:40.896Z,32.40
2022-10-17T07:06:08.236Z,29.50
2022-10-17T07:08:35.580Z,33.25
2022-10-17T07:11:15.919Z,31.58
2022-10-17T07:13:43.766Z,32.42
2022-10-17T07:16:11.997Z,33.67
2022-10-17T07:18:41.948Z,30.45
2022-10-17T07:21:09.627Z,35.22
2022-10-17T07:23:37.794Z,35.53
2022-10-17T07:26:08.346Z,34.40
2022-10-17T07:28:37.301Z,34.40
2022-10-17T07:31:10.472Z,36.53
2022-10-17T07:33:38.334Z,37.13
2022-10-17T07:36:06.280Z,37.08
2022-10-17T07:38:34.299Z,36.25
2022-10-17T07:41:03.828Z,31.52
2022-10-17T07:43:31.659Z,32.63
2022-10-17T07:46:00.484Z,34.03
2022-10-17T07:48:29.958Z,35.20
2022-10-17T07:50:57.274Z,34.17
2022-10-17T07:53:24.571Z,35.50
2022-10-17T07:55:52.154Z,34.55
2022-10-17T07:58:19.726Z,34.80
2022-10-17T08:00:51.048Z,36.22
2022-10-17T08:03:20.853Z,36.63
2022-10-17T08:05:48.155Z,39.42
2022-10-17T08:08:17.803Z,39.20
2022-10-17T08:10:45.155Z,38.22
2022-10-17T08:13:12.437Z,38.92
2022-10-17T08:15:39.674Z,35.97
2022-10-17T08:18:09.415Z,37.63
2022-10-17T08:20:37.328Z,35.80
2022-10-17T08:23:07.614Z,41.70
2022-10-17T08:25:38.934Z,38.47
2022-10-17T08:30:39.425Z,38.38
2022-10-17T08:33:08.932Z,39.60
2022-10-17T08:35:36.320Z,37.63
2022-10-17T08:38:05.708Z,38.78
2022-10-17T08:40:36.451Z,37.92
2022-10-17T08:43:30.336Z,35.67
2022-10-17T08:46:05.318Z,37.28
2022-10-17T08:48:37.087Z,36.33
2022-10-17T08:51:30.478Z,42.70
2022-10-17T08:54:21.059Z,37.47
2022-10-17T08:56:56.635Z,39.65
2022-10-17T08:59:29.777Z,40.38
2022-10-17T09:02:37.878Z,38.97
2022-10-17T09:05:14.219Z,35.05
2022-10-17T09:07:50.151Z,40.47
2022-10-17T09:10:48.336Z,38.10
2022-10-17T09:13:23.237Z,36.85
2022-10-17T09:15:53.537Z,37.83
2022-10-17T09:18:35.520Z,40.88
2022-10-17T09:21:26.131Z,39.15
2022-10-17T09:24:09.452Z,43.35
2022-10-17T09:26:40.421Z,38.95
2022-10-17T09:29:18.759Z,42.63
2022-10-17T09:31:58.553Z,42.08
2022-10-17T09:34:28.480Z,43.42
2022-10-17T09:37:02.138Z,43.55
2022-10-17T09:39:33.137Z,42.97
2022-10-17T09:42:02.113Z,40.20
2022-10-17T09:44:50.298Z,38.75
2022-10-17T09:47:32.030Z,40.70
2022-10-17T09:52:35.741Z,37.60
2022-10-17T09:55:23.244Z,39.25
2022-10-17T09:57:57.955Z,42.13
2022-10-17T10:00:46.989Z,42.40
2022-10-17T10:03:24.609Z,38.97
2022-10-17T10:06:16.061Z,40.75
2022-10-17T10:09:05.091Z,43.10
2022-10-17T10:11:56.213Z,41.40
2022-10-17T10:14:37.540Z,40.63
2022-10-17T10:17:25.690Z,37.85
2022-10-17T10:19:53.695Z,37.53
2022-10-17T10:22:25.224Z,35.35
2022-10-17T10:27:46.559Z,35.13
2022-10-17T10:30:25.573Z,35.65
2022-10-17T10:32:53.240Z,36.78
2022-10-17T10:35:32.223Z,33.45
2022-10-17T10:38:08.066Z,34.08
2022-10-17T10:40:37.393Z,79.72
2022-10-17T10:43:06.397Z,45.30
2022-10-17T10:45:47.634Z,36.50
2022-10-17T10:48:26.574Z,32.33
2022-10-17T10:51:15.932Z,33.70
2022-10-17T10:54:01.847Z,34.45
2022-10-17T10:56:53.393Z,34.13
2022-10-17T11:02:41.607Z,33.63
2022-10-17T11:05:25.021Z,36.45
2022-10-17T11:08:47.848Z,34.17
2022-10-17T11:11:39.148Z,32.88
2022-10-17T11:14:18.543Z,31.52
2022-10-17T11:17:23.063Z,33.15
2022-10-17T11:20:04.045Z,39.35
2022-10-17T11:22:52.652Z,31.38
2022-10-17T11:25:42.258Z,33.10
2022-10-17T11:28:18.402Z,33.03
2022-10-17T11:31:08.016Z,31.17
2022-10-17T11:34:01.520Z,33.45
2022-10-17T11:36:45.988Z,31.00
2022-10-17T11:39:56.263Z,31.15
2022-10-17T11:42:38.438Z,30.67
2022-10-17T11:45:22.380Z,29.75
2022-10-17T11:48:00.906Z,28.98
2022-10-17T11:53:24.898Z,28.42
2022-10-17T11:55:54.606Z,30.63
2022-10-17T11:58:41.782Z,30.05
2022-10-17T12:01:23.684Z,29.60
2022-10-17T12:04:28.642Z,25.70
2022-10-17T12:07:16.135Z,27.13
2022-10-17T12:09:55.285Z,25.88
2022-10-17T12:12:34.530Z,28.08
2022-10-17T12:15:13.624Z,28.02
2022-10-17T12:18:04.010Z,28.20
2022-10-17T12:20:39.012Z,30.85
2022-10-17T12:23:14.250Z,29.23
2022-10-17T12:26:04.870Z,29.23
2022-10-17T12:28:39.313Z,25.55
2022-10-17T12:31:16.304Z,24.45
2022-10-17T12:33:46.371Z,26.70
2022-10-17T12:36:24.842Z,26.88
2022-10-17T12:39:14.825Z,27.02
2022-10-17T12:41:42.632Z,27.70
2022-10-17T12:44:15.717Z,24.63
2022-10-17T12:47:05.050Z,26.73
2022-10-17T12:49:48.131Z,28.23
2022-10-17T12:52:24.536Z,30.30
2022-10-17T12:55:13.218Z,25.70
2022-10-17T12:57:58.779Z,26.00
2022-10-17T13:00:35.180Z,26.75
2022-10-17T13:03:25.721Z,24.35
2022-10-17T13:06:02.126Z,24.08
2022-10-17T13:08:33.097Z,25.58
2022-10-17T13:11:01.556Z,26.08
2022-10-17T13:13:41.385Z,31.67
2022-10-17T13:16:09.125Z,26.15
2022-10-17T13:18:38.789Z,24.25
2022-10-17T13:21:15.144Z,27.50
2022-10-17T13:23:45.249Z,31.90
2022-10-17T13:26:24.985Z,27.30
2022-10-17T13:29:13.096Z,25.58
2022-10-17T13:31:43.456Z,27.48
2022-10-17T13:34:22.471Z,25.92
2022-10-17T13:37:01.765Z,27.48
2022-10-17T13:40:07.020Z,22.67
2022-10-17T13:42:30.048Z,26.90
2022-10-17T13:44:59.255Z,26.35
2022-10-17T13:47:37.701Z,27.48
2022-10-17T13:50:12.755Z,25.60
2022-10-17T13:52:48.956Z,25.88
2022-10-17T13:55:20.216Z,25.60
2022-10-17T13:57:48.377Z,24.92
2022-10-17T14:00:23.316Z,27.42
2022-10-17T14:02:50.623Z,26.65
2022-10-17T14:05:20.733Z,27.70
2022-10-17T14:08:13.352Z,26.65
2022-10-17T14:10:46.130Z,29.42
2022-10-17T14:13:25.593Z,28.30
2022-10-17T14:15:59.264Z,26.13
2022-10-17T14:18:36.439Z,26.20
2022-10-17T14:21:34.374Z,27.02
2022-10-17T14:24:23.680Z,24.23
2022-10-17T14:26:54.078Z,26.90
2022-10-17T14:29:31.191Z,27.00
2022-10-17T14:32:06.140Z,26.77
2022-10-17T14:34:36.795Z,24.10
2022-10-17T14:37:18.936Z,26.83
2022-10-17T14:39:50.877Z,24.95
2022-10-17T14:42:23.160Z,27.55
2022-10-17T14:44:55.492Z,29.80
2022-10-17T14:47:43.264Z,27.08
2022-10-17T14:50:11.321Z,28.45
2022-10-17T14:52:39.878Z,29.63
2022-10-17T14:55:34.892Z,29.08
2022-10-17T14:58:15.268Z,29.23
2022-10-17T15:00:42.595Z,26.95
2022-10-17T15:03:09.998Z,27.27
2022-10-17T15:05:39.415Z,28.10
2022-10-17T15:08:20.283Z,31.45
2022-10-17T15:10:51.072Z,28.00
2022-10-17T15:13:41.030Z,26.13
2022-10-17T15:16:35.222Z,26.67
2022-10-17T15:19:02.824Z,28.75
2022-10-17T15:21:47.175Z,27.73
2022-10-17T15:24:15.818Z,28.05
2022-10-17T15:26:45.595Z,31.08
2022-10-17T15:29:18.362Z,28.95
2022-10-17T15:31:48.764Z,27.42
2022-10-17T15:34:15.983Z,25.15
2022-10-17T15:36:51.796Z,27.13
2022-10-17T15:39:19.030Z,27.83
2022-10-17T15:41:48.711Z,24.90
2022-10-17T15:44:16.083Z,29.70
2022-10-17T15:46:46.084Z,31.02
2022-10-17T15:49:17.193Z,26.88
2022-10-17T15:51:48.514Z,26.67
2022-10-17T15:54:22.422Z,29.08
2022-10-17T15:56:54.694Z,25.83
2022-10-17T15:59:26.136Z,25.70
2022-10-17T16:04:24.316Z,25.85
2022-10-17T16:06:51.700Z,24.98
2022-10-17T16:09:18.954Z,29.02
2022-10-17T16:11:46.501Z,26.25
2022-10-17T16:14:18.363Z,27.13
2022-10-17T16:16:48.355Z,27.30
2022-10-17T16:19:20.914Z,28.58
2022-10-17T16:21:48.223Z,27.00
2022-10-17T16:24:17.817Z,28.83
2022-10-17T16:26:45.103Z,28.98
2022-10-17T16:29:14.711Z,28.70
2022-10-17T16:31:45.890Z,29.55
2022-10-17T16:34:16.438Z,27.13
2022-10-17T16:36:43.728Z,28.93
2022-10-17T16:39:11.356Z,34.08
2022-10-17T16:41:39.321Z,32.80
2022-10-17T16:44:14.584Z,32.97
2022-10-17T16:46:41.932Z,34.72
2022-10-17T16:49:10.677Z,31.55
2022-10-17T16:51:37.986Z,31.15
2022-10-17T16:54:08.144Z,30.92
2022-10-17T16:56:37.843Z,30.30
2022-10-17T16:59:07.763Z,30.95
2022-10-17T17:01:35.123Z,31.85
2022-10-17T17:04:04.620Z,31.50
2022-10-17T17:06:31.952Z,27.75
2022-10-17T17:08:59.558Z,28.70
2022-10-17T17:11:28.336Z,28.35
2022-10-17T17:13:59.192Z,29.30
2022-10-17T17:16:27.462Z,30.27
2022-10-17T17:18:57.383Z,29.60
2022-10-17T17:21:26.776Z,32.03
2022-10-17T17:23:58.389Z,31.90
2022-10-17T17:28:54.570Z,28.23
2022-10-17T17:31:26.996Z,29.40
2022-10-17T17:33:57.580Z,28.48
2022-10-17T17:36:27.403Z,29.70
2022-10-17T17:38:56.863Z,30.25
2022-10-17T17:41:27.012Z,31.50
2022-10-17T17:43:56.856Z,32.20
2022-10-17T17:46:25.071Z,32.50
2022-10-17T17:48:54.353Z,28.08
2022-10-17T17:51:28.506Z,27.60
2022-10-17T17:54:00.042Z,30.65
2022-10-17T17:56:29.803Z,34.00
2022-10-17T17:59:00.118Z,32.10
2022-10-17T18:01:31.998Z,32.78
2022-10-17T18:03:59.586Z,30.58
2022-10-17T18:06:30.491Z,33.75
2022-10-17T18:08:58.951Z,32.50
2022-10-17T18:11:29.447Z,33.60
2022-10-17T18:13:58.809Z,30.80
2022-10-17T18:16:27.439Z,35.38
2022-10-17T18:18:59.512Z,29.33
2022-10-17T18:21:32.376Z,35.55
2022-10-17T18:24:00.254Z,29.55
2022-10-17T18:26:32.436Z,31.10
2022-10-17T18:29:02.049Z,35.33
2022-10-17T18:31:32.409Z,30.23
2022-10-17T18:34:00.255Z,31.23
2022-10-17T18:36:29.843Z,28.50
2022-10-17T18:38:58.838Z,30.02
2022-10-17T18:41:27.031Z,33.97
2022-10-17T18:43:55.573Z,29.15
2022-10-17T18:46:26.576Z,32.22
2022-10-17T18:48:54.147Z,29.95
2022-10-17T18:51:25.607Z,29.30
2022-10-17T18:53:58.574Z,26.95
2022-10-17T18:56:29.256Z,39.38
2022-10-17T18:58:57.096Z,30.43
2022-10-17T19:01:28.195Z,28.73
2022-10-17T19:03:59.826Z,29.48
2022-10-17T19:09:03.544Z,29.88
2022-10-17T19:11:32.673Z,27.33
2022-10-17T19:14:03.443Z,29.05
2022-10-17T19:16:36.535Z,32.45
2022-10-17T19:19:07.901Z,28.42
2022-10-17T19:21:35.216Z,37.22
2022-10-17T19:24:05.480Z,39.90
2022-10-17T19:26:35.298Z,32.72
2022-10-17T19:29:03.803Z,31.45
2022-10-17T19:31:35.443Z,27.48
2022-10-17T19:36:34.107Z,27.15
2022-10-17T19:39:04.889Z,30.42
2022-10-17T19:41:32.628Z,27.83
2022-10-17T19:44:00.797Z,29.13
2022-10-17T19:46:29.676Z,33.42
2022-10-17T19:48:57.355Z,37.75
2022-10-17T19:51:25.741Z,30.55
2022-10-17T19:53:55.507Z,29.52
2022-10-17T19:56:26.573Z,27.08
2022-10-17T19:58:55.909Z,29.80
2022-10-17T20:01:29.194Z,32.70
2022-10-17T20:03:59.207Z,28.23
2022-10-17T20:06:40.338Z,33.35
2022-10-17T20:09:16.672Z,28.10
2022-10-17T20:11:58.405Z,29.05
2022-10-17T20:14:40.976Z,28.10
2022-10-17T20:17:11.246Z,28.50
2022-10-17T20:19:44.837Z,26.83
2022-10-17T20:22:19.034Z,32.33
2022-10-17T20:24:46.504Z,26.38
2022-10-17T20:27:21.391Z,26.20
2022-10-17T20:29:59.774Z,32.83
2022-10-17T20:32:40.093Z,29.40
2022-10-17T20:35:15.749Z,28.77
2022-10-17T20:40:35.716Z,27.13
2022-10-17T20:43:19.874Z,29.27
2022-10-17T20:46:15.779Z,27.58
2022-10-17T20:49:00.825Z,25.17
2022-10-17T20:51:31.555Z,26.02
2022-10-17T20:54:07.918Z,36.25
2022-10-17T20:56:43.263Z,26.90
2022-10-17T20:59:34.678Z,27.00
2022-10-17T21:02:14.553Z,26.77
2022-10-17T21:05:04.029Z,26.13
2022-10-17T21:07:39.960Z,27.10
2022-10-17T21:10:34.261Z,25.73
2022-10-17T21:13:09.282Z,26.15
2022-10-17T21:15:46.714Z,27.52
2022-10-17T21:18:25.751Z,26.77
2022-10-17T21:20:56.017Z,24.33
2022-10-17T21:23:29.899Z,28.65
2022-10-17T21:26:07.084Z,27.55
2022-10-17T21:31:38.283Z,26.33
2022-10-17T21:34:21.024Z,38.55
2022-10-17T21:37:03.363Z,26.45
2022-10-17T21:39:34.961Z,28.05
2022-10-17T21:47:22.247Z,26.40
2022-10-17T21:50:01.711Z,23.40
2022-10-17T21:52:31.802Z,23.35
2022-10-17T21:55:03.372Z,23.23
2022-10-17T21:57:33.273Z,21.73
2022-10-17T22:00:23.614Z,18.85
2022-10-17T22:03:06.986Z,17.35
2022-10-17T22:05:39.529Z,26.98
2022-10-17T22:08:43.451Z,23.15
2022-10-17T22:11:22.694Z,22.67
2022-10-17T22:13:58.155Z,23.75
2022-10-17T22:16:41.180Z,25.25
2022-10-17T22:19:09.274Z,21.17
2022-10-17T22:21:42.382Z,27.17
2022-10-17T22:24:14.775Z,17.48
2022-10-17T22:27:00.113Z,15.70
2022-10-17T22:29:42.256Z,15.02
2022-10-17T22:32:12.016Z,14.18
2022-10-17T22:34:39.662Z,14.43
2022-10-17T22:37:26.400Z,17.10
2022-10-17T22:39:59.453Z,17.95
2022-10-17T22:42:53.212Z,19.40
2022-10-17T22:45:31.329Z,15.23
2022-10-17T22:48:10.810Z,15.75
2022-10-17T22:50:45.154Z,19.77
2022-10-17T22:53:30.017Z,21.25
2022-10-17T22:56:09.532Z,17.00
2022-10-17T22:58:40.816Z,23.40
2022-10-17T23:01:29.682Z,19.02
2022-10-17T23:04:09.067Z,16.33
2022-10-17T23:06:39.553Z,24.05
2022-10-17T23:09:23.884Z,20.52
2022-10-17T23:12:01.841Z,22.92
2022-10-17T23:14:37.941Z,23.55
2022-10-17T23:17:06.563Z,18.58
2022-10-17T23:19:39.663Z,16.15
2022-10-17T23:22:22.101Z,15.43
2022-10-17T23:24:57.839Z,15.63
2022-10-17T23:27:32.861Z,13.55
2022-10-17T23:30:18.172Z,16.50
2022-10-17T23:32:49.697Z,14.57
2022-10-17T23:35:22.069Z,14.93
2022-10-17T23:37:58.557Z,15.20
2022-10-17T23:40:40.657Z,16.50
2022-10-17T23:43:22.538Z,19.67
2022-10-17T23:45:55.151Z,16.58
2022-10-17T23:48:22.982Z,17.85
2022-10-17T23:50:52.521Z,15.13
2022-10-17T23:53:33.630Z,16.13
2022-10-17T23:56:07.886Z,16.65
2022-10-17T23:58:47.623Z,15.82
